FAMM

Mmabatho International Airport

Mafeking, South Africa
METAR FAMM 231600Z 05010KT 9999 FEW020 BKN070 20/16 Q1014 NOSIG
Observed Flight Rules
Feb-23 @ 16:00 UTC (41 minutes ago) Visual Flight Rules
Wind Visibility Clouds
50° at 10 knots 10,000+ meters
  • Few at 2,000' AGL
  • Broken at 7,000' AGL
Temperatures Readings
Current 20°C / 68°F
Dewpoint 16°C / 61°F
Humidity 78%
Altimeter 29.94" Hg
Pressure 1014 hPa
Elevation 1277
METAR FAMM 231600Z 05010KT 9999 FEW020 BKN070 20/16 Q1014 NOSIG
Observed Flight Rules
Feb-23 @ 16:00 UTC
(41 minutes ago)
VFR
Wind Visibility
50° at 10 knots 10,000+ meters
Clouds
  • Few at 2,000' AGL
  • Broken at 7,000' AGL
Temperature Dewpoint
20°C / 68°F 16°C / 61°F
Humidity Altimeter Pressure
78% 29.94" Hg 1014 hPa